Time;durP1;ratioP1;P1;durP2;ratioP2;P2;SDS_P1;SDS_P2;PMS_P1;PMS_P2;Temp;Humidity;BMP_temperature;BMP_pressure;BME280_temperature;BME280_humidity;BME280_pressure;Samples;Min_cycle;Max_cycle;Signal;HPM_P1;HPM_P2
2022/06/21 00:00:18;;;;;;;11.57;7.03;;;;;;;11.07;87.05;101596.00;5021801;28;20485;-80
2022/06/21 00:02:44;;;;;;;14.63;7.20;;;;;;;11.03;86.75;101598.28;5017316;28;20112;-80
2022/06/21 00:05:34;;;;;;;13.37;7.23;;;;;;;11.03;86.41;101601.00;5016460;28;20343;-80
2022/06/21 00:08:15;;;;;;;13.23;7.07;;;;;;;10.97;86.37;101593.63;4996087;28;20486;-80
2022/06/21 00:10:41;;;;;;;11.60;7.30;;;;;;;10.97;86.67;101593.63;4997219;28;20410;-80
2022/06/21 00:13:20;;;;;;;11.47;7.20;;;;;;;10.84;86.59;101593.53;5022220;28;20029;-80
2022/06/21 00:15:47;;;;;;;11.47;6.27;;;;;;;10.79;86.41;101591.41;5017072;28;20037;-80
2022/06/21 00:18:15;;;;;;;12.73;7.13;;;;;;;10.72;87.10;101585.94;5024383;28;20025;-80
2022/06/21 00:20:41;;;;;;;11.57;6.50;;;;;;;10.68;87.27;101603.63;5025523;28;20129;-80
2022/06/21 00:23:12;;;;;;;13.13;7.23;;;;;;;10.57;87.83;101596.84;4997887;28;20409;-80
2022/06/21 00:25:38;;;;;;;13.33;7.70;;;;;;;10.52;88.21;101595.75;5016815;28;20474;-80
2022/06/21 00:28:03;;;;;;;13.03;7.43;;;;;;;10.56;88.76;101592.44;5008785;28;20036;-79
2022/06/21 00:30:29;;;;;;;15.93;8.13;;;;;;;10.60;88.98;101596.44;5013222;28;20030;-79
2022/06/21 00:32:55;;;;;;;11.83;8.07;;;;;;;10.61;88.72;101592.72;5015499;28;20034;-80
2022/06/21 00:35:23;;;;;;;12.40;7.97;;;;;;;10.47;89.42;101570.06;5014212;28;20083;-79
2022/06/21 00:37:49;;;;;;;14.10;8.13;;;;;;;10.63;88.87;101595.22;5028479;28;20028;-80
2022/06/21 00:40:20;;;;;;;15.23;7.83;;;;;;;10.52;88.94;101596.56;5017416;28;20033;-79
2022/06/21 00:42:51;;;;;;;14.33;8.10;;;;;;;10.43;89.30;101595.00;5015662;28;20466;-80
2022/06/21 00:45:28;;;;;;;13.83;8.57;;;;;;;10.40;89.83;101592.69;5014488;28;20022;-80
2022/06/21 00:47:57;;;;;;;12.83;7.83;;;;;;;10.44;89.67;101585.88;5014619;28;20038;-80
2022/06/21 00:50:25;;;;;;;14.13;7.80;;;;;;;10.57;89.27;101590.59;5015351;28;20584;-80
2022/06/21 00:52:53;;;;;;;14.07;8.23;;;;;;;10.41;89.71;101589.78;5013889;28;20377;-80
2022/06/21 00:55:53;;;;;;;11.10;7.73;;;;;;;10.40;89.31;101598.97;5014793;28;20112;-79
2022/06/21 00:58:20;;;;;;;13.43;8.30;;;;;;;10.30;89.23;101592.97;5013551;28;20037;-79
2022/06/21 01:00:52;;;;;;;13.30;8.30;;;;;;;10.33;89.35;101586.34;5014398;28;20490;-80
2022/06/21 01:03:20;;;;;;;12.27;7.90;;;;;;;10.31;89.19;101583.84;5015761;28;20029;-80
2022/06/21 01:05:46;;;;;;;13.07;8.03;;;;;;;10.18;88.83;101578.28;5019814;28;20095;-80
2022/06/21 01:08:23;;;;;;;14.60;8.70;;;;;;;10.18;89.33;101578.28;5014707;28;20034;-80
2022/06/21 01:10:54;;;;;;;13.73;8.60;;;;;;;10.12;89.83;101574.47;5015491;28;20022;-79
2022/06/21 01:13:23;;;;;;;14.10;8.27;;;;;;;10.17;90.17;101574.69;5014394;28;20066;-80
2022/06/21 01:15:50;;;;;;;12.23;8.20;;;;;;;10.12;90.16;101582.59;5013433;28;20025;-80
2022/06/21 01:18:18;;;;;;;14.13;9.07;;;;;;;10.07;90.52;101577.72;5013085;28;20096;-80
2022/06/21 01:20:48;;;;;;;13.93;8.60;;;;;;;10.03;89.99;101570.19;5014468;28;20042;-80
2022/06/21 01:23:23;;;;;;;12.27;8.60;;;;;;;10.08;90.43;101565.88;5022907;28;20091;-80
2022/06/21 01:25:54;;;;;;;12.20;8.50;;;;;;;10.17;90.25;101560.34;5015833;28;20441;-79
2022/06/21 01:28:20;;;;;;;17.57;9.37;;;;;;;10.17;90.24;101555.75;5016662;28;20029;-80
2022/06/21 01:30:51;;;;;;;11.77;8.07;;;;;;;10.16;90.35;101564.06;5030683;28;20491;-80
2022/06/21 01:33:26;;;;;;;10.27;7.07;;;;;;;10.05;90.89;101560.84;5027911;28;20402;-80
2022/06/21 01:35:55;;;;;;;9.13;7.57;;;;;;;9.88;91.04;101548.56;5013545;28;20022;-80
2022/06/21 01:38:26;;;;;;;12.53;7.77;;;;;;;9.92;90.51;101557.97;5014223;28;20068;-80
2022/06/21 01:40:58;;;;;;;12.07;7.90;;;;;;;9.90;90.63;101560.03;5014519;28;20022;-79
2022/06/21 01:43:28;;;;;;;11.77;8.10;;;;;;;9.90;91.03;101571.72;5014576;28;20088;-80
2022/06/21 01:46:00;;;;;;;13.80;8.47;;;;;;;9.86;90.86;101567.69;5014921;28;20109;-80
2022/06/21 01:48:34;;;;;;;12.17;8.30;;;;;;;9.83;90.85;101572.63;5010452;28;20037;-80
2022/06/21 01:51:08;;;;;;;12.50;7.30;;;;;;;9.79;91.30;101564.06;5012916;28;20366;-80
2022/06/21 01:53:35;;;;;;;9.82;8.02;;;;;;;9.83;91.23;101564.53;5021755;28;20036;-80
2022/06/21 01:56:06;;;;;;;12.30;8.60;;;;;;;9.82;91.25;101560.13;5027343;28;20481;-80
2022/06/21 01:58:37;;;;;;;13.13;8.60;;;;;;;9.77;91.07;101566.13;5013532;28;20053;-80
2022/06/21 02:01:14;;;;;;;12.80;8.17;;;;;;;9.84;91.20;101558.91;5013501;28;20037;-80
2022/06/21 02:03:41;;;;;;;10.50;7.60;;;;;;;9.86;90.97;101547.91;5013447;28;20022;-80
2022/06/21 02:06:10;;;;;;;11.47;7.50;;;;;;;9.83;90.76;101542.88;5014139;28;20061;-79
2022/06/21 02:08:44;;;;;;;9.00;7.30;;;;;;;9.77;90.88;101539.88;5004937;28;20018;-79
2022/06/21 02:11:22;;;;;;;10.43;7.90;;;;;;;9.80;91.34;101542.25;5013766;28;20080;-79
2022/06/21 02:14:28;;;;;;;13.63;9.10;;;;;;;9.74;91.46;101542.97;5012246;28;20021;-79
2022/06/21 02:16:42;;;;;;;12.83;8.43;;;;;;;9.57;90.48;101546.91;5014303;28;20041;-80
2022/06/21 02:19:14;;;;;;;13.80;9.40;;;;;;;9.42;90.75;101536.09;5012798;28;20040;-80
2022/06/21 02:21:41;;;;;;;16.27;10.33;;;;;;;9.48;91.42;101540.78;5032142;28;20045;-80
2022/06/21 02:24:12;;;;;;;15.07;10.27;;;;;;;9.41;91.55;101537.97;5033142;28;20037;-80
2022/06/21 02:26:38;;;;;;;15.93;10.23;;;;;;;9.48;91.26;101540.78;5014406;28;20021;-79
2022/06/21 02:29:03;;;;;;;13.97;10.37;;;;;;;9.41;91.41;101529.88;5018468;28;20041;-80
2022/06/21 02:31:29;;;;;;;16.63;10.70;;;;;;;9.37;91.60;101528.56;5018501;28;20036;-80
2022/06/21 02:33:59;;;;;;;17.20;11.07;;;;;;;9.37;92.17;101525.00;5025477;28;20037;-80
2022/06/21 02:36:31;;;;;;;15.10;10.33;;;;;;;9.34;92.34;101518.09;5021194;28;20088;-80
2022/06/21 02:39:01;;;;;;;17.57;11.40;;;;;;;9.29;92.17;101507.84;5013013;28;20040;-80
2022/06/21 02:41:39;;;;;;;17.00;11.63;;;;;;;9.34;92.60;101498.34;5013537;28;20022;-80
2022/06/21 02:44:25;;;;;;;17.83;11.13;;;;;;;9.32;92.83;101489.59;5012088;28;20109;-79
2022/06/21 02:46:55;;;;;;;20.13;12.30;;;;;;;9.22;93.42;101471.78;5013269;28;20381;-80
2022/06/21 02:49:26;;;;;;;19.40;12.67;;;;;;;9.33;94.21;101485.84;5008277;28;20041;-80
2022/06/21 02:52:02;;;;;;;20.10;12.40;;;;;;;9.24;93.80;101491.34;5013777;28;20117;-79
2022/06/21 02:54:34;;;;;;;18.63;12.10;;;;;;;9.21;93.46;101490.91;5014278;28;20044;-80
2022/06/21 02:57:07;;;;;;;18.73;12.30;;;;;;;9.17;93.17;101495.00;5013179;28;20073;-80
2022/06/21 02:59:36;;;;;;;19.63;12.00;;;;;;;9.15;93.32;101487.06;5032201;28;20033;-80
2022/06/21 03:02:08;;;;;;;17.60;12.13;;;;;;;9.12;93.43;101487.44;5033891;28;20025;-79
2022/06/21 03:04:50;;;;;;;17.43;12.23;;;;;;;9.15;93.75;101497.88;5017493;28;20021;-80
2022/06/21 03:07:23;;;;;;;20.70;12.83;;;;;;;9.15;93.87;101505.16;5012008;28;20125;-79
2022/06/21 03:09:49;;;;;;;21.67;13.90;;;;;;;9.09;93.97;101514.84;5013155;28;20065;-79
2022/06/21 03:15:37;;;;;;;19.93;13.43;;;;;;;9.14;94.27;101523.25;5007897;28;20033;-79
2022/06/21 03:18:08;;;;;;;18.67;13.73;;;;;;;9.03;94.43;101520.97;5012499;28;20113;-79
2022/06/21 03:20:34;;;;;;;21.77;14.17;;;;;;;9.01;94.63;101517.63;5011717;28;20119;-79
2022/06/21 03:23:01;;;;;;;23.00;14.77;;;;;;;9.05;95.40;101521.66;4992172;28;20091;-79
2022/06/21 03:25:34;;;;;;;22.40;14.17;;;;;;;9.09;95.87;101536.47;5012174;28;20370;-80
2022/06/21 03:28:01;;;;;;;21.10;14.80;;;;;;;9.05;95.96;101541.41;5014959;28;20454;-79
2022/06/21 03:30:34;;;;;;;20.43;14.07;;;;;;;9.06;96.05;101542.25;5013368;28;20037;-79
2022/06/21 03:33:01;;;;;;;22.40;15.20;;;;;;;9.13;96.10;101538.63;5027556;28;20022;-80
2022/06/21 03:35:31;;;;;;;21.47;14.03;;;;;;;9.17;95.99;101543.66;5018181;28;20030;-80
2022/06/21 03:37:56;;;;;;;19.17;13.20;;;;;;;9.14;95.30;101536.75;5020802;28;20041;-79
2022/06/21 03:43:25;;;;;;;16.80;13.70;;;;;;;9.17;95.25;101528.28;5012834;28;20488;-80
2022/06/21 03:45:54;;;;;;;19.73;13.03;;;;;;;9.16;94.68;101499.56;5011324;28;20110;-80
2022/06/21 03:48:59;;;;;;;18.07;12.90;;;;;;;9.19;94.84;101487.53;5009981;28;20283;-80
2022/06/21 03:51:32;;;;;;;16.37;12.47;;;;;;;9.13;94.20;101472.91;5012695;28;20053;-80
2022/06/21 03:54:08;;;;;;;19.97;13.20;;;;;;;9.07;94.09;101479.03;5012092;28;20026;-80
2022/06/21 03:56:49;;;;;;;18.70;12.80;;;;;;;9.05;93.20;101486.50;5013272;28;20021;-79
2022/06/21 03:59:15;;;;;;;16.83;12.30;;;;;;;9.09;93.28;101482.41;5011945;28;20075;-79
2022/06/21 04:01:48;;;;;;;18.77;12.70;;;;;;;9.09;93.20;101475.13;5010974;28;20030;-80
2022/06/21 04:04:51;;;;;;;18.33;12.27;;;;;;;9.01;93.49;101472.53;5011979;28;20032;-80
2022/06/21 04:07:34;;;;;;;17.03;12.83;;;;;;;8.97;93.80;101481.19;5012389;28;20446;-79
2022/06/21 04:10:19;;;;;;;22.47;15.63;;;;;;;9.03;95.92;101483.13;5012987;28;20121;-80
2022/06/21 04:12:51;;;;;;;22.87;14.97;;;;;;;9.07;96.86;101496.13;5026157;28;20057;-80
2022/06/21 04:15:32;;;;;;;19.37;14.60;;;;;;;9.06;97.16;101489.03;5016620;28;20021;-79
2022/06/21 04:18:15;;;;;;;22.93;15.60;;;;;;;9.14;97.28;101496.22;5014317;28;20466;-79
2022/06/21 04:21:00;;;;;;;20.27;14.83;;;;;;;9.26;97.10;101493.84;5030877;28;20136;-80
2022/06/21 04:23:40;;;;;;;25.52;15.88;;;;;;;9.37;97.78;101495.25;5018460;28;20030;-80
2022/06/21 04:26:13;;;;;;;22.70;15.70;;;;;;;9.41;98.04;101493.84;5016122;28;20037;-80
2022/06/21 04:28:44;;;;;;;23.43;15.90;;;;;;;9.54;98.44;101506.72;5009852;28;20021;-80
2022/06/21 04:31:20;;;;;;;23.10;16.40;;;;;;;9.60;98.52;101493.28;5015512;28;20057;-80
2022/06/21 04:34:26;;;;;;;28.47;15.97;;;;;;;9.73;98.51;101489.06;4996945;28;20113;-80
2022/06/21 04:37:02;;;;;;;25.20;16.53;;;;;;;9.85;98.71;101497.53;5025535;28;20029;-79
2022/06/21 04:39:59;;;;;;;25.03;16.20;;;;;;;9.94;98.53;101497.22;5021275;28;20017;-80
2022/06/21 04:42:43;;;;;;;22.73;15.40;;;;;;;10.00;98.43;101473.13;5002026;28;20053;-80
2022/06/21 04:45:35;;;;;;;24.20;15.83;;;;;;;10.15;97.89;101490.13;5019829;28;20417;-80
2022/06/21 04:48:13;;;;;;;22.23;16.70;;;;;;;10.24;97.41;101486.25;5005554;28;20030;-80
2022/06/21 04:51:02;;;;;;;23.47;16.97;;;;;;;10.31;97.11;101478.19;5018016;28;20022;-80
2022/06/21 04:53:33;;;;;;;26.13;16.10;;;;;;;10.40;96.46;101479.78;5010649;28;20030;-79
2022/06/21 04:56:10;;;;;;;24.13;14.90;;;;;;;10.47;95.85;101474.38;5013686;28;20033;-80
2022/06/21 04:58:36;;;;;;;21.83;14.43;;;;;;;10.54;95.54;101469.88;5013290;28;20470;-80
2022/06/21 05:01:29;;;;;;;21.67;14.27;;;;;;;10.60;95.44;101479.91;5014926;28;20041;-80
2022/06/21 05:03:49;;;;;;;20.57;13.27;;;;;;;10.69;94.73;101483.34;5028391;28;20033;-79
2022/06/21 05:06:14;;;;;;;20.67;13.30;;;;;;;10.75;94.60;101479.00;4997775;28;20378;-79
2022/06/21 05:08:41;;;;;;;19.07;12.37;;;;;;;10.84;93.73;101474.25;5012496;28;20509;-80
2022/06/21 05:11:12;;;;;;;20.13;12.27;;;;;;;10.88;93.27;101465.53;5015261;28;20037;-80
2022/06/21 05:13:48;;;;;;;20.00;12.60;;;;;;;11.01;93.25;101474.78;5014248;28;20120;-79
2022/06/21 05:16:18;;;;;;;18.10;11.60;;;;;;;11.11;93.41;101480.66;5019189;28;20020;-80
2022/06/21 05:18:49;;;;;;;19.63;11.57;;;;;;;11.17;92.58;101474.47;5023220;28;20038;-80
2022/06/21 05:21:30;;;;;;;20.93;11.80;;;;;;;11.20;92.29;101474.06;5013205;28;20568;-80
2022/06/21 05:23:56;;;;;;;18.07;11.27;;;;;;;11.32;91.91;101479.75;5014052;28;20164;-80
2022/06/21 05:26:33;;;;;;;20.60;11.37;;;;;;;11.39;91.30;101482.50;5014648;28;20057;-81
2022/06/21 05:29:14;;;;;;;18.70;10.93;;;;;;;11.45;90.36;101484.38;5015521;28;20023;-79
2022/06/21 05:31:45;;;;;;;17.17;10.90;;;;;;;11.48;89.85;101475.88;5010324;28;20046;-80
2022/06/21 05:34:13;;;;;;;17.27;10.90;;;;;;;11.58;90.08;101476.31;5009909;28;20498;-80
2022/06/21 05:36:48;;;;;;;17.97;11.07;;;;;;;11.66;89.60;101478.03;5013658;28;20084;-80
2022/06/21 05:39:20;;;;;;;18.83;11.23;;;;;;;11.73;89.06;101478.88;5015308;28;20033;-80
2022/06/21 05:41:49;;;;;;;16.83;11.03;;;;;;;11.83;89.07;101471.19;5014559;28;20029;-81
2022/06/21 05:44:48;;;;;;;20.13;10.70;;;;;;;11.97;89.25;101474.78;5013176;28;20026;-80
2022/06/21 05:47:30;;;;;;;18.13;10.33;;;;;;;12.06;88.08;101482.75;5011478;28;20493;-80
2022/06/21 05:49:57;;;;;;;17.83;10.37;;;;;;;12.13;87.64;101479.00;5019243;28;20037;-80
2022/06/21 05:52:26;;;;;;;18.43;9.60;;;;;;;12.26;86.97;101490.94;5016774;28;20033;-79
2022/06/21 05:54:56;;;;;;;14.87;8.50;;;;;;;12.32;85.65;101488.22;5021374;28;20029;-79
2022/06/21 05:57:24;;;;;;;13.83;9.17;;;;;;;12.42;85.89;101489.69;5029905;28;20036;-82
2022/06/21 05:59:50;;;;;;;14.83;9.10;;;;;;;12.46;85.22;101491.78;5013198;28;20055;-79
2022/06/21 06:02:35;;;;;;;13.73;8.27;;;;;;;12.54;83.99;101503.47;5020802;28;20377;-81
2022/06/21 06:05:20;;;;;;;16.37;7.97;;;;;;;12.55;83.56;101503.31;5032298;28;20361;-80
2022/06/21 06:07:51;;;;;;;14.90;7.72;;;;;;;12.60;82.31;101500.75;5023900;28;20104;-81
2022/06/21 06:10:20;;;;;;;13.43;7.93;;;;;;;12.70;83.11;101507.66;5003092;28;20037;-81
2022/06/21 06:12:51;;;;;;;13.23;7.27;;;;;;;12.74;82.17;101509.78;4996361;28;20076;-80
2022/06/21 06:15:25;;;;;;;13.50;7.10;;;;;;;12.87;82.43;101527.94;5001304;28;20505;-80
2022/06/21 06:17:56;;;;;;;14.85;7.38;;;;;;;12.99;82.36;101526.25;4999862;28;20030;-79
2022/06/21 06:20:25;;;;;;;13.23;7.13;;;;;;;13.13;82.71;101531.69;5001704;28;20034;-80
2022/06/21 06:23:02;;;;;;;11.80;6.27;;;;;;;13.18;80.49;101534.63;5001005;28;20053;-81
2022/06/21 06:25:43;;;;;;;11.47;5.63;;;;;;;13.33;79.57;101537.09;5001294;28;20037;-81
2022/06/21 06:28:30;;;;;;;12.27;6.60;;;;;;;13.50;79.88;101542.94;5001550;28;20034;-82
2022/06/21 06:31:32;;;;;;;10.93;4.87;;;;;;;13.67;79.78;101537.84;5002606;28;20206;-81
2022/06/21 06:34:02;;;;;;;12.93;4.97;;;;;;;13.83;78.72;101541.94;4995034;28;20046;-80
2022/06/21 06:36:33;;;;;;;10.80;4.83;;;;;;;13.79;76.18;101546.16;5000928;28;20194;-81
2022/06/21 06:39:00;;;;;;;11.97;5.00;;;;;;;13.89;77.01;101548.44;5002357;28;20378;-82
2022/06/21 06:41:31;;;;;;;11.23;4.37;;;;;;;13.98;76.57;101549.84;5001859;28;20037;-81
2022/06/21 06:44:01;;;;;;;11.50;4.17;;;;;;;14.12;76.76;101540.56;5002962;28;20040;-81
2022/06/21 06:46:28;;;;;;;7.83;4.30;;;;;;;14.29;76.97;101534.59;5010482;28;20084;-81
2022/06/21 06:49:05;;;;;;;8.70;4.40;;;;;;;14.38;75.78;101540.63;5008395;28;20052;-80
2022/06/21 06:52:00;;;;;;;12.37;4.53;;;;;;;14.53;76.38;101532.94;5010649;28;20057;-81
2022/06/21 06:54:35;;;;;;;;;;;;;;;14.72;75.99;101543.97;5012674;28;20512;-79
2022/06/21 06:57:35;;;;;;;9.00;3.92;;;;;;;14.73;71.77;101541.00;5012666;28;19916;-81
2022/06/21 07:00:10;;;;;;;10.30;4.10;;;;;;;14.72;72.78;101538.50;5012998;28;20052;-81
2022/06/21 07:02:41;;;;;;;9.27;4.37;;;;;;;14.84;71.84;101547.66;4999929;28;20650;-81
2022/06/21 07:05:19;;;;;;;10.47;4.60;;;;;;;14.85;71.95;101543.84;5002392;28;20033;-80
2022/06/21 07:07:58;;;;;;;11.30;4.73;;;;;;;14.94;70.60;101552.59;5002205;28;20042;-81
2022/06/21 07:10:26;;;;;;;8.73;4.40;;;;;;;15.15;72.20;101559.50;5004200;28;20022;-80
2022/06/21 07:12:53;;;;;;;10.63;4.03;;;;;;;15.25;71.06;101559.03;5012790;28;20362;-80
2022/06/21 07:15:33;;;;;;;10.03;4.63;;;;;;;15.38;70.67;101553.44;5012146;28;20022;-81
2022/06/21 07:17:58;;;;;;;8.33;3.67;;;;;;;15.32;67.31;101555.13;5012366;28;20474;-81
2022/06/21 07:20:40;;;;;;;6.33;3.53;;;;;;;15.44;67.82;101551.69;5012904;28;20093;-80
2022/06/21 07:23:19;;;;;;;10.23;4.17;;;;;;;15.51;68.11;101549.69;5012246;28;20108;-80
2022/06/21 07:25:49;;;;;;;10.67;4.30;;;;;;;15.58;69.41;101544.97;5024210;28;20096;-80
2022/06/21 07:28:56;;;;;;;7.53;4.30;;;;;;;15.80;69.70;101534.47;5028214;28;20436;-80
2022/06/21 07:31:40;;;;;;;7.03;4.03;;;;;;;15.82;68.73;101526.03;5000204;28;20037;-81
2022/06/21 07:34:27;;;;;;;8.70;3.33;;;;;;;15.86;66.99;101527.25;5014667;28;20053;-81
2022/06/21 07:36:59;;;;;;;12.03;4.17;;;;;;;15.86;65.92;101525.34;5012989;28;20579;-80
2022/06/21 07:39:36;;;;;;;7.30;3.80;;;;;;;16.11;67.82;101527.09;5013222;28;20073;-80
2022/06/21 07:42:10;;;;;;;7.53;3.20;;;;;;;16.17;64.22;101544.50;5007893;28;20052;-80
2022/06/21 07:44:44;;;;;;;7.05;3.60;;;;;;;16.25;64.43;101546.91;5013011;28;20084;-80
2022/06/21 07:47:20;;;;;;;9.85;3.72;;;;;;;16.32;64.99;101546.75;5014072;28;20030;-79
2022/06/21 07:49:51;;;;;;;7.13;3.40;;;;;;;16.40;63.09;101537.41;5016685;28;20355;-82
2022/06/21 07:52:27;;;;;;;7.17;3.63;;;;;;;16.52;64.78;101535.53;5013608;28;20041;-79
2022/06/21 07:55:26;;;;;;;11.40;3.80;;;;;;;16.62;63.43;101535.78;5015526;28;20019;-83
2022/06/21 07:57:59;;;;;;;8.17;3.73;;;;;;;16.63;63.09;101531.16;5002747;28;20474;-80
2022/06/21 08:06:40;;;;;;;9.10;4.33;;;;;;;16.60;64.96;101526.97;5018605;28;20347;-80
2022/06/21 08:08:52;;;;;;;10.10;3.60;;;;;;;17.34;62.74;101520.25;5012565;28;20493;-76
2022/06/21 08:11:24;;;;;;;9.47;3.50;;;;;;;17.38;60.18;101522.25;5015084;28;20108;-77
2022/06/21 08:13:50;;;;;;;7.67;3.67;;;;;;;17.55;59.08;101507.78;5014768;28;20025;-78
2022/06/21 08:16:22;;;;;;;8.00;3.87;;;;;;;17.63;59.15;101510.16;5014215;28;20485;-77
2022/06/21 08:19:00;;;;;;;9.00;4.00;;;;;;;17.60;58.74;101501.56;5036771;28;20037;-78
2022/06/21 08:21:34;;;;;;;8.93;3.63;;;;;;;17.52;58.94;101517.31;5013930;28;20049;-77
2022/06/21 08:24:21;;;;;;;13.15;3.75;;;;;;;17.71;58.81;101509.75;5014734;28;20030;-77
2022/06/21 08:27:11;;;;;;;8.80;3.83;;;;;;;17.99;58.77;101510.03;5016245;28;20030;-77
2022/06/21 08:29:53;;;;;;;7.40;3.40;;;;;;;18.15;60.31;101519.41;5020540;28;20040;-77
2022/06/21 08:32:26;;;;;;;6.40;3.70;;;;;;;18.11;59.16;101494.38;5018338;28;20068;-77
2022/06/21 08:34:59;;;;;;;8.90;3.70;;;;;;;18.48;56.92;101512.28;5018173;28;20069;-78
2022/06/21 08:37:41;;;;;;;8.75;3.80;;;;;;;18.79;57.34;101501.81;5035321;28;20013;-77
2022/06/21 08:40:33;;;;;;;8.32;3.67;;;;;;;19.01;56.18;101501.88;5025505;28;20038;-77
2022/06/21 08:43:13;;;;;;;5.65;3.38;;;;;;;19.35;57.69;101494.41;5014459;28;20059;-77
2022/06/21 08:45:51;;;;;;;8.40;3.42;;;;;;;19.40;54.90;101488.94;5027729;28;20032;-78
2022/06/21 08:48:38;;;;;;;9.00;3.75;;;;;;;19.71;56.32;101483.81;5028392;28;20030;-78
2022/06/21 08:51:09;;;;;;;7.93;3.70;;;;;;;19.98;55.18;101484.97;5034490;28;20120;-79
2022/06/21 08:53:44;;;;;;;6.38;3.40;;;;;;;19.89;52.25;101485.41;5014610;28;20099;-79
2022/06/21 08:56:24;;;;;;;8.23;3.72;;;;;;;19.92;53.66;101477.75;5014678;28;20036;-79
2022/06/21 08:59:22;;;;;;;8.70;3.90;;;;;;;20.20;54.92;101471.13;5014774;28;20112;-80
2022/06/21 09:02:16;;;;;;;8.45;4.32;;;;;;;20.00;52.20;101455.28;4992996;28;20033;-79
2022/06/21 09:05:13;;;;;;;9.15;3.92;;;;;;;20.19;52.35;101450.22;5027004;28;20049;-78
2022/06/21 09:08:01;;;;;;;8.85;4.20;;;;;;;20.10;53.51;101441.63;5022143;28;20344;-79
2022/06/21 09:10:50;;;;;;;9.63;4.10;;;;;;;19.96;53.94;101432.94;5013798;28;20026;-80
2022/06/21 09:13:35;;;;;;;7.78;3.85;;;;;;;19.99;53.35;101437.09;5009995;28;20088;-79
2022/06/21 09:16:19;;;;;;;8.05;4.03;;;;;;;20.02;54.06;101442.91;5013391;28;20083;-81
2022/06/21 09:18:56;;;;;;;;;;;;;;;20.48;55.39;101447.97;5009975;28;20347;-80
2022/06/21 09:21:52;;;;;;;13.68;4.00;;;;;;;20.30;54.00;101443.69;5017649;28;19919;-80
2022/06/21 09:27:51;;;;;;;7.47;3.92;;;;;;;20.89;51.66;101428.19;5029196;28;20039;-80
2022/06/21 09:30:25;;;;;;;8.65;3.78;;;;;;;21.18;51.44;101438.78;5006307;28;20042;-81
2022/06/21 09:33:20;;;;;;;10.07;3.97;;;;;;;21.49;50.50;101433.38;5000983;28;20789;-80
2022/06/21 09:35:45;;;;;;;8.68;4.13;;;;;;;21.48;46.94;101421.50;5002567;28;20099;-81
2022/06/21 09:38:22;;;;;;;7.50;3.80;;;;;;;22.02;49.09;101416.69;5002938;28;20038;-80
2022/06/21 09:40:57;;;;;;;7.28;3.60;;;;;;;22.38;48.36;101408.41;5002615;28;20029;-81
2022/06/21 09:43:28;;;;;;;7.18;4.00;;;;;;;22.28;45.14;101414.72;5003123;28;20052;-80
2022/06/21 09:45:59;;;;;;;7.78;3.90;;;;;;;22.30;45.23;101407.00;5003762;28;20040;-79
2022/06/21 09:48:57;;;;;;;8.60;4.13;;;;;;;22.62;45.95;101411.41;5002742;28;20099;-80
2022/06/21 09:51:50;;;;;;;7.72;3.70;;;;;;;23.39;48.91;101405.63;5001245;28;20052;-81
2022/06/21 09:54:25;;;;;;;7.93;3.20;;;;;;;23.71;47.17;101406.25;5002839;28;20435;-81
2022/06/21 09:57:03;;;;;;;6.50;3.35;;;;;;;23.79;43.84;101415.88;5003286;28;20088;-81
2022/06/21 09:59:46;;;;;;;5.63;2.95;;;;;;;24.31;43.92;101419.91;4987643;28;20037;-81
2022/06/21 10:02:37;;;;;;;9.07;3.10;;;;;;;24.13;37.08;101412.34;5003047;28;20129;-82
2022/06/21 10:05:11;;;;;;;5.30;2.35;;;;;;;23.83;36.79;101405.91;5002792;28;20054;-81
2022/06/21 10:08:00;;;;;;;6.50;3.15;;;;;;;24.25;41.75;101410.81;5002382;28;20030;-82
2022/06/21 10:10:41;;;;;;;7.05;3.53;;;;;;;24.15;43.59;101410.09;5003238;28;20041;-80
2022/06/21 10:13:12;;;;;;;9.85;3.53;;;;;;;23.82;43.64;101398.69;5002486;28;20060;-81
2022/06/21 10:15:49;;;;;;;7.32;3.35;;;;;;;23.84;43.65;101399.22;5003201;28;20034;-80
2022/06/21 10:18:41;;;;;;;6.43;3.03;;;;;;;23.94;43.99;101408.31;5002653;28;20038;-82
2022/06/21 10:21:33;;;;;;;6.53;2.90;;;;;;;23.93;44.56;101401.16;5001522;28;20088;-80
2022/06/21 10:24:20;;;;;;;5.20;2.75;;;;;;;23.54;43.09;101412.16;5002867;28;20125;-81
2022/06/21 10:27:03;;;;;;;4.57;2.50;;;;;;;23.40;44.00;101409.19;5002997;28;20587;-81
2022/06/21 10:29:53;;;;;;;5.93;2.97;;;;;;;23.37;41.05;101410.59;5002575;28;20052;-81
2022/06/21 10:32:24;;;;;;;5.80;2.35;;;;;;;23.21;43.62;101406.25;5002777;28;20048;-82
2022/06/21 10:35:23;;;;;;;5.30;2.10;;;;;;;23.16;44.01;101401.59;5002487;28;20128;-81
2022/06/21 10:38:02;;;;;;;3.30;2.10;;;;;;;22.86;41.73;101411.63;5002186;28;20124;-81
2022/06/21 10:41:01;;;;;;;4.38;2.30;;;;;;;22.87;43.84;101416.00;5002760;28;20040;-81
2022/06/21 10:43:35;;;;;;;7.10;2.70;;;;;;;22.42;41.72;101415.03;5001578;28;20040;-80
2022/06/21 10:46:25;;;;;;;4.10;2.50;;;;;;;22.20;42.46;101418.06;5002582;28;20152;-80
2022/06/21 10:49:06;;;;;;;7.45;3.00;;;;;;;22.08;43.59;101407.28;5002325;28;20115;-81
2022/06/21 10:51:56;;;;;;;4.35;2.70;;;;;;;22.36;46.49;101407.88;5001499;28;20048;-80
2022/06/21 10:54:46;;;;;;;6.03;2.50;;;;;;;22.33;46.02;101406.47;5002363;28;20462;-82
2022/06/21 10:57:39;;;;;;;4.88;2.80;;;;;;;22.65;46.69;101418.31;5002371;28;20120;-81
2022/06/21 11:03:16;;;;;;;7.00;3.22;;;;;;;22.30;43.76;101418.03;5001932;28;20054;-80
2022/06/21 11:06:19;;;;;;;6.68;3.13;;;;;;;22.29;44.93;101413.63;5002093;28;20033;-79
2022/06/21 11:09:10;;;;;;;7.05;2.97;;;;;;;22.18;46.88;101409.19;5002316;28;20162;-81
2022/06/21 11:12:52;;;;;;;8.88;3.10;;;;;;;22.19;49.20;101408.09;5003084;28;20041;-81
2022/06/21 11:15:05;;;;;;;4.40;1.98;;;;;;;22.23;45.02;101401.75;5001710;28;20049;-83
2022/06/21 11:17:57;;;;;;;4.47;1.77;;;;;;;22.06;44.22;101401.22;5002443;28;20038;-81
2022/06/21 11:20:33;;;;;;;3.20;1.65;;;;;;;21.99;44.36;101403.41;5006031;28;20041;-82
2022/06/21 11:23:18;;;;;;;5.55;1.98;;;;;;;21.99;42.72;101400.66;5033585;28;20052;-81
2022/06/21 11:26:02;;;;;;;3.55;1.60;;;;;;;21.30;43.23;101400.78;5004911;28;20506;-81
2022/06/21 11:28:31;;;;;;;4.45;1.60;;;;;;;21.35;45.38;101406.31;5004986;28;20033;-81
2022/06/21 11:31:18;;;;;;;2.08;1.40;;;;;;;21.73;45.79;101408.91;5005066;28;20038;-81
2022/06/21 11:34:21;;;;;;;4.82;1.73;;;;;;;21.92;45.44;101404.53;5004360;28;20044;-81
2022/06/21 11:37:14;;;;;;;4.38;1.50;;;;;;;21.96;41.62;101401.22;5005450;28;20099;-82
2022/06/21 11:39:43;;;;;;;5.25;1.52;;;;;;;21.67;42.84;101404.50;5004902;28;20042;-80
2022/06/21 11:42:15;;;;;;;4.32;1.90;;;;;;;21.64;42.90;101405.06;5002228;28;20045;-80
2022/06/21 11:45:06;;;;;;;5.00;1.80;;;;;;;21.72;43.14;101401.75;5004317;28;20345;-80
2022/06/21 11:48:03;;;;;;;5.72;1.83;;;;;;;21.67;44.79;101405.31;5004592;28;21373;-80
2022/06/21 11:51:06;;;;;;;5.93;1.90;;;;;;;21.61;44.56;101402.81;5005049;28;20069;-82
2022/06/21 11:53:53;;;;;;;2.88;1.48;;;;;;;21.64;46.10;101399.53;5003656;28;20115;-81
2022/06/21 11:56:49;;;;;;;5.22;1.70;;;;;;;20.94;44.95;101395.13;5008888;28;20075;-80
2022/06/21 11:59:29;;;;;;;4.38;1.60;;;;;;;20.85;45.33;101388.50;5003631;28;20038;-82
2022/06/21 12:02:43;;;;;;;3.17;1.63;;;;;;;20.82;47.47;101389.00;5004583;28;20034;-81
2022/06/21 12:05:34;;;;;;;2.90;1.40;;;;;;;20.83;47.21;101385.97;5003626;28;20045;-80
2022/06/21 12:08:23;;;;;;;8.05;2.03;;;;;;;20.59;48.07;101374.56;5004024;28;20160;-82
2022/06/21 12:10:54;;;;;;;5.70;1.92;;;;;;;20.77;46.71;101372.44;5003710;28;20282;-81
2022/06/21 12:13:29;;;;;;;3.67;1.80;;;;;;;20.65;47.82;101369.91;5004070;28;20033;-79
2022/06/21 12:16:20;;;;;;;6.13;2.00;;;;;;;20.55;49.16;101373.44;5008873;28;20129;-81
2022/06/21 12:18:52;;;;;;;4.32;1.80;;;;;;;20.50;48.60;101359.63;5003110;28;20132;-81
2022/06/21 12:21:24;;;;;;;4.38;2.20;;;;;;;20.52;49.79;101368.44;5002255;28;20378;-82
2022/06/21 12:23:57;;;;;;;6.30;2.10;;;;;;;20.58;47.40;101373.72;5003979;28;20119;-80
2022/06/21 12:26:25;;;;;;;6.43;2.20;;;;;;;20.42;48.39;101363.72;5003704;28;20033;-82